createdAt,value
2017-11-22T00:00:42.679Z,21.8
2017-11-22T00:01:44.575Z,21.7
2017-11-22T00:02:45.914Z,21.7
2017-11-22T00:03:47.809Z,21.7
2017-11-22T00:04:49.430Z,21.7
2017-11-22T00:05:51.328Z,21.8
2017-11-22T00:06:52.982Z,21.7
2017-11-22T00:07:54.323Z,21.7
2017-11-22T00:08:56.222Z,21.7
2017-11-22T00:09:57.849Z,21.7
2017-11-22T00:10:59.468Z,21.7
2017-11-22T00:12:01.085Z,21.7
2017-11-22T00:13:02.704Z,21.7
2017-11-22T00:14:04.326Z,21.7
2017-11-22T00:15:06.233Z,21.7
2017-11-22T00:16:08.140Z,21.8
2017-11-22T00:17:09.756Z,21.7
2017-11-22T00:18:11.367Z,21.7
2017-11-22T00:19:12.988Z,21.7
2017-11-22T00:20:14.667Z,21.7
2017-11-22T00:21:16.585Z,21.7
2017-11-22T00:22:18.206Z,21.7
2017-11-22T00:23:19.835Z,21.7
2017-11-22T00:24:21.453Z,21.7
2017-11-22T00:25:23.350Z,21.7
2017-11-22T00:26:25.253Z,21.7
2017-11-22T00:27:27.152Z,21.7
2017-11-22T00:28:28.773Z,21.7
2017-11-22T00:29:30.693Z,21.7
2017-11-22T00:30:32.015Z,21.7
2017-11-22T00:31:33.911Z,21.7
2017-11-22T00:32:35.807Z,21.7
2017-11-22T00:33:37.703Z,21.7
2017-11-22T00:34:39.600Z,21.7
2017-11-22T00:35:40.957Z,21.7
2017-11-22T00:36:42.853Z,21.7
2017-11-22T00:37:44.755Z,21.8
2017-11-22T00:38:46.652Z,21.7
2017-11-22T00:39:48.548Z,21.7
2017-11-22T00:40:50.168Z,21.7
2017-11-22T00:41:51.768Z,21.8
2017-11-22T00:42:53.663Z,21.7
2017-11-22T00:43:55.289Z,21.7
2017-11-22T00:44:56.910Z,21.7
2017-11-22T00:45:58.255Z,21.7
2017-11-22T00:46:59.868Z,21.7
2017-11-22T00:48:01.486Z,21.7
2017-11-22T00:49:03.110Z,21.7
2017-11-22T00:50:04.431Z,21.7
2017-11-22T00:51:06.058Z,21.7
2017-11-22T00:52:07.951Z,21.7
2017-11-22T00:53:09.290Z,21.7
2017-11-22T00:54:10.623Z,21.7
2017-11-22T00:55:12.553Z,21.7
2017-11-22T00:56:13.615Z,21.7
2017-11-22T00:57:15.232Z,21.7
2017-11-22T00:58:16.569Z,21.7
2017-11-22T00:59:17.890Z,21.7
2017-11-22T01:00:18.960Z,21.7
2017-11-22T01:01:20.310Z,21.6
2017-11-22T01:02:22.209Z,21.6
2017-11-22T01:03:23.802Z,21.7
2017-11-22T01:04:25.424Z,21.7
2017-11-22T01:05:26.744Z,21.7
2017-11-22T01:06:28.073Z,21.7
2017-11-22T01:07:29.699Z,21.7
2017-11-22T01:08:31.590Z,21.7
2017-11-22T01:09:33.223Z,21.6
2017-11-22T01:10:34.844Z,21.7
2017-11-22T01:11:36.442Z,21.7
2017-11-22T01:12:38.059Z,21.6
2017-11-22T01:13:39.684Z,21.7
2017-11-22T01:14:41.277Z,21.7
2017-11-22T01:15:43.174Z,21.6
2017-11-22T01:16:44.517Z,21.6
2017-11-22T01:17:46.151Z,21.7
2017-11-22T01:18:47.753Z,21.7
2017-11-22T01:19:49.092Z,21.7
2017-11-22T01:20:51.036Z,21.7
2017-11-22T01:21:52.659Z,21.7
2017-11-22T01:22:54.252Z,21.7
2017-11-22T01:23:55.294Z,21.6
2017-11-22T01:24:56.953Z,21.6
2017-11-22T01:25:58.852Z,21.6
2017-11-22T01:27:00.471Z,21.7
2017-11-22T01:28:02.093Z,21.6
2017-11-22T01:29:03.713Z,21.6
2017-11-22T01:30:05.612Z,21.6
2017-11-22T01:31:06.954Z,21.7
2017-11-22T01:32:08.575Z,21.6
2017-11-22T01:33:10.471Z,21.6
2017-11-22T01:34:12.378Z,21.6
2017-11-22T01:35:13.990Z,21.7
2017-11-22T01:36:15.324Z,21.6
2017-11-22T01:37:17.221Z,21.6
2017-11-22T01:38:19.117Z,21.5
2017-11-22T01:39:21.033Z,21.6
2017-11-22T01:40:22.374Z,21.6
2017-11-22T01:41:23.715Z,21.6
2017-11-22T01:42:25.336Z,21.6
2017-11-22T01:43:27.232Z,21.6
2017-11-22T01:44:29.153Z,21.5
2017-11-22T01:45:30.473Z,21.6
2017-11-22T01:46:32.092Z,21.6
2017-11-22T01:47:33.710Z,21.6
2017-11-22T01:48:35.053Z,21.6
2017-11-22T01:49:36.951Z,21.5
2017-11-22T01:50:38.849Z,21.6
2017-11-22T01:51:40.744Z,21.6
2017-11-22T01:52:42.648Z,21.6
2017-11-22T01:53:44.287Z,21.5
2017-11-22T01:54:45.629Z,21.5
2017-11-22T01:55:47.522Z,21.6
2017-11-22T01:56:49.417Z,21.6
2017-11-22T01:57:51.064Z,21.6
2017-11-22T01:58:52.682Z,21.6
2017-11-22T01:59:54.301Z,21.6
2017-11-22T02:00:55.641Z,21.6
2017-11-22T02:01:56.704Z,21.6
2017-11-22T02:02:58.024Z,21.6
2017-11-22T02:03:59.655Z,21.5
2017-11-22T02:05:01.545Z,21.6
2017-11-22T02:06:03.445Z,21.6
2017-11-22T02:07:05.062Z,21.6
2017-11-22T02:08:06.411Z,21.6
2017-11-22T02:09:07.450Z,21.6
2017-11-22T02:10:09.348Z,21.6
2017-11-22T02:11:10.985Z,21.6
2017-11-22T02:12:12.875Z,21.6
2017-11-22T02:13:14.473Z,21.5
2017-11-22T02:14:16.372Z,21.5
2017-11-22T02:15:18.273Z,21.6
2017-11-22T02:16:19.866Z,21.6
2017-11-22T02:17:21.485Z,21.5
2017-11-22T02:18:23.104Z,21.6
2017-11-22T02:19:24.723Z,21.6
2017-11-22T02:20:26.321Z,21.5
2017-11-22T02:21:27.926Z,21.6
2017-11-22T02:22:29.823Z,21.6
2017-11-22T02:23:30.864Z,21.6
2017-11-22T02:24:32.759Z,21.6
2017-11-22T02:25:34.376Z,21.6
2017-11-22T02:26:35.975Z,21.6
2017-11-22T02:27:37.591Z,21.6
2017-11-22T02:28:39.487Z,21.5
2017-11-22T02:29:41.113Z,21.5
2017-11-22T02:30:43.021Z,21.5
2017-11-22T02:31:44.079Z,21.5
2017-11-22T02:32:45.714Z,21.5
2017-11-22T02:33:47.334Z,21.6
2017-11-22T02:34:48.954Z,21.5
2017-11-22T02:35:50.295Z,21.5
2017-11-22T02:36:51.896Z,21.6
2017-11-22T02:37:53.514Z,21.5
2017-11-22T02:38:55.156Z,21.5
2017-11-22T02:39:56.798Z,21.5
2017-11-22T02:40:58.400Z,21.5
2017-11-22T02:41:59.723Z,21.6
2017-11-22T02:43:01.339Z,21.6
2017-11-22T02:44:02.964Z,21.4
2017-11-22T02:45:04.287Z,21.5
2017-11-22T02:46:05.919Z,21.5
2017-11-22T02:47:07.813Z,21.5
2017-11-22T02:48:09.421Z,21.5
2017-11-22T02:49:11.312Z,21.4
2017-11-22T02:50:13.231Z,21.5
2017-11-22T02:51:15.167Z,21.5
2017-11-22T02:52:16.785Z,21.4
2017-11-22T02:53:18.680Z,21.5
2017-11-22T02:54:20.316Z,21.4
2017-11-22T02:55:21.940Z,21.5
2017-11-22T02:56:23.839Z,21.5
2017-11-22T02:57:25.462Z,21.5
2017-11-22T02:58:27.352Z,21.4
2017-11-22T02:59:29.247Z,21.5
2017-11-22T03:00:30.892Z,21.4
2017-11-22T03:01:32.520Z,21.5
2017-11-22T03:02:34.109Z,21.5
2017-11-22T03:03:36.008Z,21.5
2017-11-22T03:04:37.349Z,21.4
2017-11-22T03:05:39.245Z,21.5
2017-11-22T03:06:41.142Z,21.5
2017-11-22T03:07:42.759Z,21.4
2017-11-22T03:08:44.657Z,21.4
2017-11-22T03:09:46.253Z,21.5
2017-11-22T03:10:48.157Z,21.5
2017-11-22T03:11:49.775Z,21.4
2017-11-22T03:12:51.372Z,21.4
2017-11-22T03:13:52.990Z,21.4
2017-11-22T03:14:54.600Z,21.4
2017-11-22T03:15:56.499Z,21.4
2017-11-22T03:16:58.396Z,21.4
2017-11-22T03:18:00.019Z,21.4
2017-11-22T03:19:01.615Z,21.4
2017-11-22T03:20:03.233Z,21.5
2017-11-22T03:21:04.852Z,21.4
2017-11-22T03:22:06.501Z,21.4
2017-11-22T03:23:08.117Z,21.5
2017-11-22T03:24:09.735Z,21.5
2017-11-22T03:25:11.355Z,21.4
2017-11-22T03:26:12.997Z,21.3
2017-11-22T03:27:14.909Z,21.5
2017-11-22T03:28:16.808Z,21.5
2017-11-22T03:29:18.701Z,21.4
2017-11-22T03:30:20.299Z,21.4
2017-11-22T03:31:22.195Z,21.4
2017-11-22T03:32:23.791Z,21.4
2017-11-22T03:33:25.708Z,21.4
2017-11-22T03:34:27.612Z,21.4
2017-11-22T03:35:29.231Z,21.4
2017-11-22T03:36:31.129Z,21.4
2017-11-22T03:37:33.031Z,21.4
2017-11-22T03:38:34.918Z,21.4
2017-11-22T03:39:36.816Z,21.4
2017-11-22T03:40:38.711Z,21.4
2017-11-22T03:41:40.328Z,21.4
2017-11-22T03:42:42.227Z,21.5
2017-11-22T03:43:43.570Z,21.5
2017-11-22T03:44:45.477Z,21.4
2017-11-22T03:45:47.101Z,21.4
2017-11-22T03:46:48.422Z,21.4
2017-11-22T03:47:50.316Z,21.4
2017-11-22T03:48:52.234Z,21.5
2017-11-22T03:49:54.145Z,21.4
2017-11-22T03:50:55.765Z,21.4
2017-11-22T03:51:57.386Z,21.4
2017-11-22T03:52:59.005Z,21.4
2017-11-22T03:54:00.350Z,21.5
2017-11-22T03:55:02.244Z,21.4
2017-11-22T03:56:03.585Z,21.4
2017-11-22T03:57:05.483Z,21.4
2017-11-22T03:58:07.376Z,21.4
2017-11-22T03:59:08.989Z,21.5
2017-11-22T04:00:10.609Z,21.4
2017-11-22T04:01:11.951Z,21.4
2017-11-22T04:02:13.272Z,21.4
2017-11-22T04:03:14.312Z,21.4
2017-11-22T04:04:16.210Z,21.4
2017-11-22T04:05:17.805Z,21.4
2017-11-22T04:06:19.148Z,21.4
2017-11-22T04:07:20.474Z,21.3
2017-11-22T04:08:21.838Z,21.4
2017-11-22T04:09:23.438Z,21.3
2017-11-22T04:10:24.757Z,21.4
2017-11-22T04:11:26.099Z,21.4
2017-11-22T04:12:28.059Z,21.5
2017-11-22T04:13:29.380Z,21.4
2017-11-22T04:14:30.978Z,21.4
2017-11-22T04:15:32.876Z,21.5
2017-11-22T04:16:34.216Z,21.4
2017-11-22T04:17:35.836Z,21.3
2017-11-22T04:18:37.155Z,21.4
2017-11-22T04:19:38.773Z,21.4
2017-11-22T04:20:40.095Z,21.4
2017-11-22T04:21:41.715Z,21.4
2017-11-22T04:22:43.036Z,21.4
2017-11-22T04:23:44.371Z,21.3
2017-11-22T04:24:46.272Z,21.4
2017-11-22T04:25:47.890Z,21.3
2017-11-22T04:26:49.787Z,21.4
2017-11-22T04:27:51.412Z,21.4
2017-11-22T04:28:53.303Z,21.4
2017-11-22T04:29:54.922Z,21.4
2017-11-22T04:30:56.816Z,21.4
2017-11-22T04:31:57.856Z,21.4
2017-11-22T04:32:59.475Z,21.4
2017-11-22T04:34:00.821Z,21.4
2017-11-22T04:35:02.439Z,21.3
2017-11-22T04:36:03.782Z,21.4
2017-11-22T04:37:05.133Z,21.3
2017-11-22T04:38:06.753Z,21.3
2017-11-22T04:39:08.382Z,21.4
2017-11-22T04:40:10.273Z,21.3
2017-11-22T04:41:11.888Z,21.4
2017-11-22T04:42:13.780Z,21.3
2017-11-22T04:43:15.402Z,21.4
2017-11-22T04:44:17.297Z,21.3
2017-11-22T04:45:19.191Z,21.3
2017-11-22T04:46:20.811Z,21.4
2017-11-22T04:47:22.428Z,21.3
2017-11-22T04:48:24.053Z,21.3
2017-11-22T04:49:25.654Z,21.4
2017-11-22T04:50:27.000Z,21.3
2017-11-22T04:51:28.052Z,21.4
2017-11-22T04:52:29.665Z,21.4
2017-11-22T04:53:31.285Z,21.3
2017-11-22T04:54:32.883Z,21.4
2017-11-22T04:55:34.784Z,21.3
2017-11-22T04:56:36.110Z,21.4
2017-11-22T04:57:37.420Z,21.3
2017-11-22T04:58:39.051Z,21.3
2017-11-22T04:59:40.937Z,21.3
2017-11-22T05:00:42.274Z,21.4
2017-11-22T05:01:43.601Z,21.3
2017-11-22T05:02:45.248Z,21.3
2017-11-22T05:03:46.879Z,21.3
2017-11-22T05:04:48.776Z,21.4
2017-11-22T05:05:50.372Z,21.3
2017-11-22T05:06:52.273Z,21.3
2017-11-22T05:07:53.317Z,21.4
2017-11-22T05:08:54.100Z,21.3
2017-11-22T05:09:55.738Z,21.3
2017-11-22T05:10:57.630Z,21.3
2017-11-22T05:11:59.540Z,21.4
2017-11-22T05:13:00.586Z,21.4
2017-11-22T05:14:02.207Z,21.4
2017-11-22T05:15:04.110Z,21.4
2017-11-22T05:16:05.451Z,21.4
2017-11-22T05:17:07.349Z,21.4
2017-11-22T05:18:09.243Z,21.4
2017-11-22T05:19:10.844Z,21.5
2017-11-22T05:20:12.468Z,21.5
2017-11-22T05:21:14.365Z,21.4
2017-11-22T05:22:15.704Z,21.4
2017-11-22T05:23:17.600Z,21.4
2017-11-22T05:24:19.242Z,21.4
2017-11-22T05:25:20.858Z,21.4
2017-11-22T05:26:22.458Z,21.4
2017-11-22T05:27:24.356Z,21.5
2017-11-22T05:28:26.254Z,21.4
2017-11-22T05:29:28.150Z,21.5
2017-11-22T05:30:29.781Z,21.5
2017-11-22T05:31:31.379Z,21.6
2017-11-22T05:32:32.720Z,21.5
2017-11-22T05:33:34.615Z,21.5
2017-11-22T05:34:35.961Z,21.6
2017-11-22T05:35:37.857Z,21.6
2017-11-22T05:36:39.479Z,21.6
2017-11-22T05:37:41.370Z,21.6
2017-11-22T05:38:42.415Z,21.5
2017-11-22T05:39:44.309Z,21.6
2017-11-22T05:40:45.905Z,21.5
2017-11-22T05:41:47.263Z,21.6
2017-11-22T05:42:49.160Z,21.6
2017-11-22T05:43:51.056Z,21.5
2017-11-22T05:44:52.685Z,21.6
2017-11-22T05:45:54.297Z,21.6
2017-11-22T05:46:56.192Z,21.6
2017-11-22T05:47:57.811Z,21.6
2017-11-22T05:48:59.705Z,21.5
2017-11-22T05:50:01.616Z,21.6
2017-11-22T05:51:03.506Z,21.6
2017-11-22T05:52:05.134Z,21.6
2017-11-22T05:53:07.034Z,21.7
2017-11-22T05:54:08.375Z,21.6
2017-11-22T05:55:09.716Z,21.6
2017-11-22T05:56:11.610Z,21.7
2017-11-22T05:57:13.229Z,21.7
2017-11-22T05:58:14.554Z,21.7
2017-11-22T05:59:16.446Z,21.7
2017-11-22T06:00:18.044Z,21.7
2017-11-22T06:01:19.949Z,21.6
2017-11-22T06:02:21.571Z,21.7
2017-11-22T06:03:23.474Z,21.7
2017-11-22T06:04:24.798Z,21.7
2017-11-22T06:05:26.117Z,21.7
2017-11-22T06:06:28.014Z,21.7
2017-11-22T06:07:29.917Z,21.7
2017-11-22T06:08:31.811Z,21.7
2017-11-22T06:09:33.427Z,21.7
2017-11-22T06:10:35.072Z,21.7
2017-11-22T06:11:36.106Z,21.7
2017-11-22T06:12:37.732Z,21.7
2017-11-22T06:13:39.357Z,21.8
2017-11-22T06:14:41.255Z,21.7
2017-11-22T06:15:42.868Z,21.7
2017-11-22T06:16:44.466Z,21.8
2017-11-22T06:17:46.370Z,21.8
2017-11-22T06:18:48.295Z,21.7
2017-11-22T06:19:49.895Z,21.8
2017-11-22T06:20:51.790Z,21.8
2017-11-22T06:21:53.183Z,21.9
2017-11-22T06:22:54.803Z,21.8
2017-11-22T06:23:56.422Z,21.8
2017-11-22T06:24:58.043Z,21.8
2017-11-22T06:25:59.642Z,21.7
2017-11-22T06:27:01.274Z,21.8
2017-11-22T06:28:02.868Z,21.9
2017-11-22T06:29:04.485Z,21.8
2017-11-22T06:30:06.380Z,21.9
2017-11-22T06:31:07.722Z,21.8
2017-11-22T06:32:09.092Z,21.9
2017-11-22T06:33:10.713Z,21.8
2017-11-22T06:34:12.617Z,21.8
2017-11-22T06:35:14.251Z,21.9
2017-11-22T06:36:15.841Z,21.8
2017-11-22T06:37:17.791Z,21.8
2017-11-22T06:38:19.422Z,21.8
2017-11-22T06:39:21.020Z,21.9
2017-11-22T06:40:22.915Z,21.8
2017-11-22T06:41:24.515Z,21.9
2017-11-22T06:42:26.139Z,21.8
2017-11-22T06:43:28.034Z,21.8
2017-11-22T06:44:29.932Z,21.8
2017-11-22T06:45:31.827Z,21.8
2017-11-22T06:46:33.447Z,21.8
2017-11-22T06:47:35.445Z,21.9
2017-11-22T06:48:37.066Z,21.8
2017-11-22T06:49:38.686Z,21.8
2017-11-22T06:50:40.030Z,21.9
2017-11-22T06:51:41.654Z,21.9
2017-11-22T06:52:43.611Z,21.9
2017-11-22T06:53:45.226Z,21.8
2017-11-22T06:54:47.123Z,21.9
2017-11-22T06:55:49.030Z,21.8
2017-11-22T06:56:50.642Z,21.8
2017-11-22T06:57:52.555Z,21.9
2017-11-22T06:58:54.447Z,21.9
2017-11-22T06:59:56.341Z,21.9
2017-11-22T07:00:58.249Z,21.9
2017-11-22T07:01:59.869Z,21.9
2017-11-22T07:03:01.767Z,21.9
2017-11-22T07:04:03.087Z,22
2017-11-22T07:05:04.985Z,22
2017-11-22T07:06:06.880Z,21.9
2017-11-22T07:07:08.780Z,21.9
2017-11-22T07:08:10.380Z,21.9
2017-11-22T07:09:11.724Z,21.9
2017-11-22T07:10:13.343Z,21.9
2017-11-22T07:11:14.972Z,21.9
2017-11-22T07:12:16.586Z,21.9
2017-11-22T07:13:18.210Z,21.9
2017-11-22T07:14:19.807Z,21.9
2017-11-22T07:15:21.710Z,21.9
2017-11-22T07:16:23.606Z,21.9
2017-11-22T07:17:25.514Z,21.9
2017-11-22T07:18:26.831Z,21.9
2017-11-22T07:19:28.208Z,21.9
2017-11-22T07:20:29.752Z,22
2017-11-22T07:21:31.372Z,21.9
2017-11-22T07:22:32.972Z,21.9
2017-11-22T07:23:34.017Z,21.9
2017-11-22T07:24:35.340Z,21.9
2017-11-22T07:25:36.958Z,21.9
2017-11-22T07:26:38.857Z,22
2017-11-22T07:27:40.760Z,21.9
2017-11-22T07:28:42.380Z,21.9
2017-11-22T07:29:43.731Z,21.9
2017-11-22T07:30:45.650Z,21.9
2017-11-22T07:31:46.991Z,22
2017-11-22T07:32:48.891Z,21.9
2017-11-22T07:33:50.491Z,22
2017-11-22T07:34:52.114Z,21.9
2017-11-22T07:35:53.715Z,21.9
2017-11-22T07:36:55.335Z,21.9
2017-11-22T07:37:56.954Z,21.9
2017-11-22T07:38:58.849Z,22
2017-11-22T07:40:00.748Z,21.9
2017-11-22T07:41:02.345Z,21.9
2017-11-22T07:42:04.254Z,21.9
2017-11-22T07:43:05.598Z,21.9
2017-11-22T07:44:07.265Z,21.9
2017-11-22T07:45:09.166Z,22
2017-11-22T07:46:11.066Z,22
2017-11-22T07:47:12.971Z,21.9
2017-11-22T07:48:14.873Z,22
2017-11-22T07:49:16.223Z,21.9
2017-11-22T07:50:17.841Z,21.9
2017-11-22T07:51:19.745Z,21.9
2017-11-22T07:52:21.361Z,21.9
2017-11-22T07:53:22.983Z,21.9
2017-11-22T07:54:24.603Z,21.9
2017-11-22T07:55:26.222Z,21.9
2017-11-22T07:56:27.821Z,22
2017-11-22T07:57:29.419Z,21.9
2017-11-22T07:58:31.046Z,22
2017-11-22T07:59:32.662Z,22
2017-11-22T08:00:34.263Z,22
2017-11-22T08:01:36.162Z,21.9
2017-11-22T08:02:38.059Z,21.9
2017-11-22T08:03:39.685Z,22
2017-11-22T08:04:41.632Z,22
2017-11-22T08:05:42.960Z,21.9
2017-11-22T08:06:44.549Z,22
2017-11-22T08:07:45.892Z,22
2017-11-22T08:08:47.509Z,22
2017-11-22T08:09:49.410Z,22
2017-11-22T08:10:51.027Z,22
2017-11-22T08:11:52.374Z,22
2017-11-22T08:12:53.713Z,21.9
2017-11-22T08:13:55.332Z,22
2017-11-22T08:14:57.234Z,21.9
2017-11-22T08:15:59.129Z,21.9
2017-11-22T08:17:00.170Z,22
2017-11-22T08:18:01.492Z,22
2017-11-22T08:19:03.115Z,21.9
2017-11-22T08:20:04.738Z,22
2017-11-22T08:21:06.360Z,22
2017-11-22T08:22:07.970Z,21.9
2017-11-22T08:23:09.601Z,22
2017-11-22T08:24:11.498Z,22.1
2017-11-22T08:25:13.401Z,22
2017-11-22T08:26:15.026Z,22
2017-11-22T08:27:16.354Z,22.1
2017-11-22T08:28:18.249Z,22.1
2017-11-22T08:29:19.578Z,22
2017-11-22T08:30:20.937Z,22
2017-11-22T08:31:22.278Z,22
2017-11-22T08:32:23.906Z,21.9
2017-11-22T08:33:25.244Z,21.9
2017-11-22T08:34:26.866Z,22
2017-11-22T08:35:28.761Z,22
2017-11-22T08:36:30.359Z,22.1
2017-11-22T08:37:32.275Z,22
2017-11-22T08:38:34.172Z,22.1
2017-11-22T08:39:35.788Z,22.1
2017-11-22T08:40:36.834Z,22
2017-11-22T08:41:38.475Z,22.1
2017-11-22T08:42:40.373Z,22
2017-11-22T08:43:41.977Z,22.1
2017-11-22T08:44:43.320Z,22.1
2017-11-22T08:45:45.266Z,22.1
2017-11-22T08:46:47.163Z,22.1
2017-11-22T08:47:48.781Z,22
2017-11-22T08:48:50.389Z,22.1
2017-11-22T08:49:52.099Z,22.1
2017-11-22T08:50:53.993Z,22
2017-11-22T08:51:55.888Z,22
2017-11-22T08:52:57.540Z,22.1
2017-11-22T08:53:59.469Z,22.1
2017-11-22T08:55:01.362Z,22.1
2017-11-22T08:56:03.262Z,22.1
2017-11-22T08:57:04.327Z,22
2017-11-22T08:58:05.670Z,22.1
2017-11-22T08:59:07.569Z,22
2017-11-22T09:00:09.201Z,22.1
2017-11-22T09:01:11.102Z,22
2017-11-22T09:02:13.005Z,22
2017-11-22T09:03:14.642Z,22.1
2017-11-22T09:04:16.247Z,22.1
2017-11-22T09:05:17.869Z,22.1
2017-11-22T09:06:19.263Z,22
2017-11-22T09:07:20.581Z,22.1
2017-11-22T09:08:22.482Z,22.1
2017-11-22T09:09:23.801Z,22
2017-11-22T09:10:25.703Z,22.1
2017-11-22T09:11:27.321Z,22.1
2017-11-22T09:12:28.941Z,22.1
2017-11-22T09:13:30.541Z,22.1
2017-11-22T09:14:31.590Z,22.1
2017-11-22T09:15:33.217Z,22
2017-11-22T09:16:34.832Z,22.1
2017-11-22T09:17:35.877Z,22.1
2017-11-22T09:18:37.774Z,22.1
2017-11-22T09:19:39.685Z,22
2017-11-22T09:20:40.728Z,22.1
2017-11-22T09:21:42.625Z,22
2017-11-22T09:22:44.255Z,22.1
2017-11-22T09:23:46.152Z,22.1
2017-11-22T09:24:47.493Z,22.1
2017-11-22T09:25:49.113Z,22.1
2017-11-22T09:26:51.011Z,22.1
2017-11-22T09:27:52.081Z,22.1
2017-11-22T09:28:53.407Z,22
2017-11-22T09:29:55.027Z,22.1
2017-11-22T09:30:56.930Z,22.1
2017-11-22T09:31:58.549Z,22.1
2017-11-22T09:33:00.175Z,22.1
2017-11-22T09:34:01.498Z,22.1
2017-11-22T09:35:03.399Z,22.2
2017-11-22T09:36:04.713Z,22.1
2017-11-22T09:37:06.340Z,22.1
2017-11-22T09:38:08.228Z,22.1
2017-11-22T09:39:10.127Z,22.1
2017-11-22T09:40:11.464Z,22.1
2017-11-22T09:41:13.364Z,22.1
2017-11-22T09:42:14.678Z,22.1
2017-11-22T09:43:16.297Z,22.2
2017-11-22T09:44:17.899Z,22.1
2017-11-22T09:45:19.255Z,22.1
2017-11-22T09:46:21.190Z,22.2
2017-11-22T09:47:22.813Z,22.2
2017-11-22T09:48:24.154Z,22.2
2017-11-22T09:49:26.060Z,22.2
2017-11-22T09:50:27.379Z,22.2
2017-11-22T09:51:29.276Z,22.1
2017-11-22T09:52:30.876Z,22.2
2017-11-22T09:53:32.495Z,22.2
2017-11-22T09:54:34.411Z,22.2
2017-11-22T09:55:36.015Z,22.2
2017-11-22T09:56:37.361Z,22.2
2017-11-22T09:57:39.001Z,22.2
2017-11-22T09:58:40.908Z,22.2
2017-11-22T09:59:42.803Z,22.2
2017-11-22T10:00:44.194Z,22.2
2017-11-22T10:01:45.788Z,22.2
2017-11-22T10:02:47.686Z,22.2
2017-11-22T10:03:49.587Z,22.2
2017-11-22T10:04:51.207Z,22.2
2017-11-22T10:05:53.115Z,22.2
2017-11-22T10:06:55.014Z,22.2
2017-11-22T10:07:56.360Z,22.2
2017-11-22T10:08:57.978Z,22.2
2017-11-22T10:09:59.595Z,22.2
2017-11-22T10:11:01.485Z,22.3
2017-11-22T10:12:03.387Z,22.2
2017-11-22T10:13:05.284Z,22.2
2017-11-22T10:14:06.900Z,22.2
2017-11-22T10:15:08.248Z,22.2
2017-11-22T10:16:09.869Z,22.3
2017-11-22T10:17:11.199Z,22.2
2017-11-22T10:18:12.519Z,22.2
2017-11-22T10:19:14.123Z,22.2
2017-11-22T10:20:15.740Z,22.2
2017-11-22T10:21:17.636Z,22.3
2017-11-22T10:22:19.255Z,22.2
2017-11-22T10:23:20.597Z,22.2
2017-11-22T10:24:22.217Z,22.3
2017-11-22T10:25:23.815Z,22.2
2017-11-22T10:26:25.156Z,22.3
2017-11-22T10:27:27.055Z,22.3
2017-11-22T10:28:28.656Z,22.3
2017-11-22T10:29:30.287Z,22.2
2017-11-22T10:30:32.177Z,22.3
2017-11-22T10:31:33.503Z,22.3
2017-11-22T10:32:35.395Z,22.3
2017-11-22T10:33:37.011Z,22.2
2017-11-22T10:34:38.683Z,22.3
2017-11-22T10:35:40.581Z,22.3
2017-11-22T10:36:42.479Z,22.3
2017-11-22T10:37:44.382Z,22.2
2017-11-22T10:38:46.283Z,22.2
2017-11-22T10:39:47.903Z,22.2
2017-11-22T10:40:49.247Z,22.3
2017-11-22T10:41:50.318Z,22.2
2017-11-22T10:42:52.230Z,22.3
2017-11-22T10:43:54.130Z,22.3
2017-11-22T10:44:55.760Z,22.2
2017-11-22T10:45:57.653Z,22.3
2017-11-22T10:46:59.582Z,22.3
2017-11-22T10:48:01.202Z,22.3
2017-11-22T10:49:03.115Z,22.3
2017-11-22T10:50:05.015Z,22.2
2017-11-22T10:51:06.647Z,22.2
2017-11-22T10:52:08.577Z,22.3
2017-11-22T10:53:09.921Z,22.3
2017-11-22T10:54:11.535Z,22.4
2017-11-22T10:55:13.160Z,22.3
2017-11-22T10:56:14.502Z,22.2
2017-11-22T10:57:16.124Z,22.4
2017-11-22T10:58:17.740Z,22.3
2017-11-22T10:59:19.365Z,22.4
2017-11-22T11:00:21.267Z,22.3
2017-11-22T11:01:22.887Z,22.3
2017-11-22T11:02:24.784Z,22.2
2017-11-22T11:03:26.126Z,22.4
2017-11-22T11:04:28.022Z,22.3
2017-11-22T11:05:29.920Z,22.3
2017-11-22T11:06:31.540Z,22.4
2017-11-22T11:07:33.211Z,22.4
2017-11-22T11:08:35.138Z,22.3
2017-11-22T11:09:37.037Z,22.3
2017-11-22T11:10:38.106Z,22.3
2017-11-22T11:11:40.005Z,22.3
2017-11-22T11:12:41.624Z,22.4
2017-11-22T11:13:43.262Z,22.3
2017-11-22T11:14:44.608Z,22.4
2017-11-22T11:15:46.504Z,22.4
2017-11-22T11:16:48.401Z,22.3
2017-11-22T11:17:50.314Z,22.4
2017-11-22T11:18:51.936Z,22.4
2017-11-22T11:19:53.831Z,22.3
2017-11-22T11:20:55.179Z,22.4
2017-11-22T11:21:56.868Z,22.3
2017-11-22T11:22:58.774Z,22.4
2017-11-22T11:24:00.666Z,22.4
2017-11-22T11:25:02.268Z,22.4
2017-11-22T11:26:04.167Z,22.3
2017-11-22T11:27:05.784Z,22.3
2017-11-22T11:28:07.143Z,22.4
2017-11-22T11:29:08.472Z,22.3
2017-11-22T11:30:10.072Z,22.3
2017-11-22T11:31:11.970Z,22.4
2017-11-22T11:32:13.589Z,22.4
2017-11-22T11:33:15.209Z,22.4
2017-11-22T11:34:16.825Z,22.4
2017-11-22T11:35:18.474Z,22.4
2017-11-22T11:36:20.098Z,22.4
2017-11-22T11:37:21.995Z,22.3
2017-11-22T11:38:23.339Z,22.4
2017-11-22T11:39:24.936Z,22.3
2017-11-22T11:40:26.833Z,22.4
2017-11-22T11:41:28.176Z,22.3
2017-11-22T11:42:29.794Z,22.4
2017-11-22T11:43:31.418Z,22.4
2017-11-22T11:44:33.020Z,22.4
2017-11-22T11:45:34.641Z,22.4
2017-11-22T11:46:36.348Z,22.4
2017-11-22T11:47:37.958Z,22.4
2017-11-22T11:48:39.559Z,22.5
2017-11-22T11:49:41.457Z,22.4
2017-11-22T11:50:43.356Z,22.4
2017-11-22T11:51:44.978Z,22.3
2017-11-22T11:52:46.872Z,22.4
2017-11-22T11:53:48.490Z,22.3
2017-11-22T11:54:50.387Z,22.4
2017-11-22T11:55:52.297Z,22.4
2017-11-22T11:56:53.917Z,22.4
2017-11-22T11:57:55.238Z,22.3
2017-11-22T11:58:56.306Z,22.4
2017-11-22T11:59:57.937Z,22.4
2017-11-22T12:00:59.280Z,22.4
2017-11-22T12:02:00.324Z,22.4
2017-11-22T12:03:01.945Z,22.4
2017-11-22T12:04:03.543Z,22.3
2017-11-22T12:05:05.142Z,22.4
2017-11-22T12:06:07.043Z,22.4
2017-11-22T12:07:08.662Z,22.4
2017-11-22T12:08:10.261Z,22.3
2017-11-22T12:09:11.879Z,22.4
2017-11-22T12:10:13.777Z,22.4
2017-11-22T12:11:15.406Z,22.4
2017-11-22T12:12:17.023Z,22.4
2017-11-22T12:13:18.645Z,22.4
2017-11-22T12:14:19.982Z,22.4
2017-11-22T12:15:21.602Z,22.4
2017-11-22T12:16:23.227Z,22.4
2017-11-22T12:17:24.823Z,22.4
2017-11-22T12:18:26.141Z,22.4
2017-11-22T12:19:27.742Z,22.4
2017-11-22T12:20:29.364Z,22.4
2017-11-22T12:21:30.985Z,22.4
2017-11-22T12:22:32.607Z,22.4
2017-11-22T12:23:34.220Z,22.4
2017-11-22T12:24:36.121Z,22.4
2017-11-22T12:25:38.062Z,22.4
2017-11-22T12:26:39.685Z,22.4
2017-11-22T12:27:41.586Z,22.3
2017-11-22T12:28:43.485Z,22.4
2017-11-22T12:29:45.105Z,22.4
2017-11-22T12:30:47.004Z,22.4
2017-11-22T12:31:48.625Z,22.5
2017-11-22T12:32:50.254Z,22.4
2017-11-22T12:33:51.865Z,22.5
2017-11-22T12:34:53.481Z,22.5
2017-11-22T12:35:55.102Z,22.5
2017-11-22T12:36:56.421Z,22.4
2017-11-22T12:37:58.071Z,22.5
2017-11-22T12:38:59.977Z,22.5
2017-11-22T12:40:01.600Z,22.4
2017-11-22T12:41:02.643Z,22.4
2017-11-22T12:42:04.540Z,22.4
2017-11-22T12:43:06.216Z,22.4
2017-11-22T12:44:08.114Z,22.4
2017-11-22T12:45:10.012Z,22.4
2017-11-22T12:46:11.910Z,22.5
2017-11-22T12:47:12.672Z,22.4
2017-11-22T12:48:14.270Z,22.5
2017-11-22T12:49:16.202Z,22.4
2017-11-22T12:50:17.550Z,22.5
2017-11-22T12:51:19.444Z,22.5
2017-11-22T12:52:20.488Z,22.5
2017-11-22T12:53:22.087Z,22.4
2017-11-22T12:54:23.730Z,22.4
2017-11-22T12:55:25.625Z,22.5
2017-11-22T12:56:27.246Z,22.5
2017-11-22T12:57:28.844Z,22.5
2017-11-22T12:58:30.444Z,22.4
2017-11-22T12:59:31.789Z,22.5
2017-11-22T13:00:33.414Z,22.5
2017-11-22T13:01:35.306Z,22.5
2017-11-22T13:02:36.344Z,22.5
2017-11-22T13:03:37.951Z,22.4
2017-11-22T13:04:39.299Z,22.5
2017-11-22T13:05:40.922Z,22.5
2017-11-22T13:06:42.540Z,22.5
2017-11-22T13:07:44.157Z,22.5
2017-11-22T13:08:45.753Z,22.5
2017-11-22T13:09:47.073Z,22.5
2017-11-22T13:10:48.695Z,22.5
2017-11-22T13:11:50.301Z,22.5
2017-11-22T13:12:51.920Z,22.5
2017-11-22T13:13:53.538Z,22.5
2017-11-22T13:14:54.859Z,22.5
2017-11-22T13:15:56.757Z,22.4
2017-11-22T13:16:58.664Z,22.5
2017-11-22T13:18:00.560Z,22.5
2017-11-22T13:19:01.885Z,22.5
2017-11-22T13:20:03.224Z,22.5
2017-11-22T13:21:04.573Z,22.5
2017-11-22T13:22:06.192Z,22.5
2017-11-22T13:23:07.233Z,22.4
2017-11-22T13:24:08.851Z,22.5
2017-11-22T13:25:09.895Z,22.4
2017-11-22T13:26:10.937Z,22.5
2017-11-22T13:27:12.556Z,22.5
2017-11-22T13:28:13.880Z,22.5
2017-11-22T13:29:15.779Z,22.5
2017-11-22T13:30:17.375Z,22.5
2017-11-22T13:31:19.272Z,22.5
2017-11-22T13:32:20.899Z,22.5
2017-11-22T13:33:22.791Z,22.4
2017-11-22T13:34:24.426Z,22.5
2017-11-22T13:35:26.323Z,22.5
2017-11-22T13:36:27.654Z,22.5
2017-11-22T13:37:29.553Z,22.5
2017-11-22T13:38:31.171Z,22.5
2017-11-22T13:39:32.800Z,22.5
2017-11-22T13:40:34.419Z,22.5
2017-11-22T13:41:36.040Z,22.5
2017-11-22T13:42:37.942Z,22.5
2017-11-22T13:43:39.562Z,22.5